Time;durP1;ratioP1;P1;durP2;ratioP2;P2;SDS_P1;SDS_P2;PMS_P1;PMS_P2;Temp;Humidity;BMP_temperature;BMP_pressure;BME280_temperature;BME280_humidity;BME280_pressure;Samples;Min_cycle;Max_cycle;Signal;HPM_P1;HPM_P2
2024/01/28 00:00:52;;;;;;;7.15;3.22;;;15.80;61.00;;;;;;5154459;27;45112;-52
2024/01/28 00:03:20;;;;;;;9.15;3.25;;;15.80;61.90;;;;;;5156054;27;45142;-51
2024/01/28 00:05:49;;;;;;;7.15;2.80;;;15.80;61.20;;;;;;5149809;27;44944;-51
2024/01/28 00:08:16;;;;;;;6.18;2.78;;;15.80;60.80;;;;;;5150900;27;46413;-51
2024/01/28 00:10:43;;;;;;;5.88;2.72;;;15.80;61.80;;;;;;5148789;27;45272;-51
2024/01/28 00:13:09;;;;;;;7.15;2.78;;;15.80;61.20;;;;;;5149819;27;45305;-51
2024/01/28 00:15:36;;;;;;;6.72;3.13;;;15.80;60.50;;;;;;5150018;27;45417;-51
2024/01/28 00:18:03;;;;;;;6.43;2.78;;;15.90;61.40;;;;;;5150226;27;46289;-51
2024/01/28 00:20:30;;;;;;;6.47;2.80;;;15.80;60.90;;;;;;5151093;27;45135;-51
2024/01/28 00:22:58;;;;;;;7.03;3.20;;;15.90;61.20;;;;;;5152253;27;45358;-51
2024/01/28 00:25:25;;;;;;;8.40;2.78;;;15.80;58.80;;;;;;5150033;27;45470;-51
2024/01/28 00:27:51;;;;;;;7.13;2.95;;;15.80;56.70;;;;;;5148373;27;46324;-51
2024/01/28 00:30:18;;;;;;;9.35;3.40;;;15.80;55.20;;;;;;5151945;27;45436;-51
2024/01/28 00:32:45;;;;;;;7.80;2.92;;;15.70;54.40;;;;;;5148611;27;45187;-51
2024/01/28 00:35:12;;;;;;;8.60;3.00;;;15.70;54.20;;;;;;5152385;27;45430;-51
2024/01/28 00:37:39;;;;;;;8.65;2.70;;;15.70;54.30;;;;;;5152746;27;45297;-51
2024/01/28 00:40:09;;;;;;;6.32;2.80;;;15.70;53.10;;;;;;5151986;27;45231;-51
2024/01/28 00:42:36;;;;;;;6.38;3.10;;;15.70;53.60;;;;;;5149805;27;45210;-51
2024/01/28 00:45:03;;;;;;;7.20;2.90;;;15.60;52.70;;;;;;5152120;27;45268;-51
2024/01/28 00:47:30;;;;;;;5.45;2.80;;;15.60;53.00;;;;;;5146854;27;46875;-51
2024/01/28 00:49:56;;;;;;;7.20;3.05;;;15.60;52.80;;;;;;5154200;27;45146;-51
2024/01/28 00:52:23;;;;;;;6.07;2.53;;;15.60;53.50;;;;;;5150336;27;45270;-51
2024/01/28 00:54:50;;;;;;;4.60;2.72;;;15.70;54.40;;;;;;5149693;27;45176;-51
2024/01/28 00:57:18;;;;;;;6.55;2.97;;;15.70;54.90;;;;;;5150043;27;45202;-51
2024/01/28 00:59:45;;;;;;;5.90;2.50;;;15.70;55.10;;;;;;5150786;27;45244;-51
2024/01/28 01:02:12;;;;;;;8.60;2.75;;;15.70;55.30;;;;;;5151545;27;45130;-51
2024/01/28 01:04:38;;;;;;;5.90;2.60;;;15.70;55.70;;;;;;5149413;27;45131;-51
2024/01/28 01:07:05;;;;;;;4.97;2.22;;;15.70;56.10;;;;;;5152603;27;46636;-51
2024/01/28 01:09:32;;;;;;;5.15;2.60;;;15.70;56.50;;;;;;5148349;27;45220;-51
2024/01/28 01:11:58;;;;;;;6.68;2.67;;;15.70;56.30;;;;;;5158160;27;45163;-51
2024/01/28 01:14:26;;;;;;;6.03;2.45;;;15.80;56.80;;;;;;5150222;27;45391;-51
2024/01/28 01:16:53;;;;;;;6.55;2.38;;;15.80;57.20;;;;;;5149680;27;46545;-51
2024/01/28 01:19:20;;;;;;;6.97;2.50;;;15.80;56.80;;;;;;5148993;27;45163;-51
2024/01/28 01:21:50;;;;;;;7.32;2.70;;;15.80;57.30;;;;;;5149421;27;44735;-51
2024/01/28 01:24:17;;;;;;;5.95;2.10;;;15.80;57.50;;;;;;5149278;27;45323;-51
2024/01/28 01:26:44;;;;;;;4.32;2.35;;;15.80;57.00;;;;;;5149627;27;46532;-51
2024/01/28 01:29:10;;;;;;;5.28;2.25;;;15.80;57.10;;;;;;5154050;27;45159;-51
2024/01/28 01:31:38;;;;;;;5.30;2.33;;;15.80;57.30;;;;;;5151331;27;45130;-51
2024/01/28 01:34:04;;;;;;;4.72;2.20;;;15.80;57.60;;;;;;5150175;27;45173;-51
2024/01/28 01:36:31;;;;;;;5.75;2.35;;;15.80;56.90;;;;;;5149496;27;45270;-51
2024/01/28 01:38:58;;;;;;;3.95;2.00;;;15.90;57.00;;;;;;5150542;27;44793;-51
2024/01/28 01:41:25;;;;;;;4.30;1.98;;;15.80;56.90;;;;;;5149859;27;45271;-51
2024/01/28 01:43:52;;;;;;;4.47;2.10;;;15.80;56.30;;;;;;5150853;27;45153;-51
2024/01/28 01:46:19;;;;;;;5.15;2.33;;;15.80;56.90;;;;;;5152096;27;46240;-51
2024/01/28 01:48:48;;;;;;;5.30;1.85;;;15.80;57.00;;;;;;5148549;27;45395;-51
2024/01/28 01:51:15;;;;;;;3.97;1.85;;;15.80;57.10;;;;;;5152638;27;45125;-51
2024/01/28 01:53:43;;;;;;;7.15;2.30;;;15.80;57.10;;;;;;5149196;27;45219;-51
2024/01/28 01:56:10;;;;;;;4.50;2.15;;;15.80;57.00;;;;;;5150875;27;45165;-51
2024/01/28 01:58:37;;;;;;;4.63;2.05;;;15.80;57.10;;;;;;5151540;27;45142;-51
2024/01/28 02:01:05;;;;;;;4.60;1.92;;;15.80;57.20;;;;;;5153056;27;45149;-51
2024/01/28 02:03:33;;;;;;;5.57;2.20;;;15.80;57.40;;;;;;5152577;27;45721;-51
2024/01/28 02:06:01;;;;;;;5.35;2.10;;;15.80;57.40;;;;;;5150496;27;46583;-51
2024/01/28 02:08:28;;;;;;;4.38;1.90;;;15.80;57.20;;;;;;5151154;27;45252;-51
2024/01/28 02:10:55;;;;;;;2.70;1.80;;;15.80;57.20;;;;;;5150597;27;45239;-51
2024/01/28 02:13:22;;;;;;;4.15;1.95;;;15.80;57.00;;;;;;5150730;27;45176;-51
2024/01/28 02:15:49;;;;;;;4.43;2.17;;;15.80;57.20;;;;;;5146822;27;46538;-51
2024/01/28 02:18:15;;;;;;;5.60;2.25;;;15.80;56.90;;;;;;5151073;27;45217;-51
2024/01/28 02:20:43;;;;;;;5.47;2.10;;;15.80;57.60;;;;;;5154010;27;45205;-51
2024/01/28 02:23:16;;;;;;;4.03;2.20;;;15.80;56.90;;;;;;5149236;27;45190;-51
2024/01/28 02:25:43;;;;;;;4.60;2.13;;;15.80;56.80;;;;;;5149974;27;45304;-51
2024/01/28 02:28:10;;;;;;;6.50;2.08;;;15.80;56.60;;;;;;5151781;27;45120;-51
2024/01/28 02:30:36;;;;;;;6.28;2.10;;;15.80;57.10;;;;;;5150971;27;45127;-51
2024/01/28 02:33:04;;;;;;;4.13;1.70;;;15.90;56.60;;;;;;5152088;27;45307;-51
2024/01/28 02:35:30;;;;;;;5.63;2.30;;;15.90;56.50;;;;;;5153848;27;46305;-51
2024/01/28 02:37:57;;;;;;;7.82;2.35;;;15.80;54.60;;;;;;5156127;27;45509;-51
2024/01/28 02:40:25;;;;;;;5.10;1.77;;;15.80;53.40;;;;;;5150416;27;45374;-51
2024/01/28 02:42:52;;;;;;;4.25;1.83;;;15.80;53.00;;;;;;5151609;27;45304;-51
2024/01/28 02:45:19;;;;;;;4.15;1.60;;;15.70;52.00;;;;;;5154935;27;45254;-51
2024/01/28 02:47:46;;;;;;;4.10;1.67;;;15.80;51.90;;;;;;5153309;27;45243;-51
2024/01/28 02:50:13;;;;;;;7.30;2.45;;;15.80;51.50;;;;;;5154168;27;45158;-51
2024/01/28 02:52:40;;;;;;;4.10;2.22;;;15.70;51.20;;;;;;5150827;27;45449;-51
2024/01/28 02:55:07;;;;;;;5.68;1.95;;;15.70;50.90;;;;;;5150552;27;46888;-51
2024/01/28 02:57:35;;;;;;;3.70;1.58;;;15.60;51.10;;;;;;5154021;27;45267;-51
2024/01/28 03:00:03;;;;;;;5.18;1.85;;;15.60;51.10;;;;;;5155507;27;45178;-51
2024/01/28 03:02:30;;;;;;;4.30;1.98;;;15.60;51.10;;;;;;5152647;27;45298;-51
2024/01/28 03:04:57;;;;;;;4.47;1.73;;;15.60;51.40;;;;;;5151071;27;46225;-51
2024/01/28 03:07:24;;;;;;;6.50;1.98;;;15.60;53.70;;;;;;5153250;27;45123;-51
2024/01/28 03:09:50;;;;;;;4.60;1.85;;;15.60;53.00;;;;;;5152218;27;45279;-51
2024/01/28 03:12:17;;;;;;;7.07;1.95;;;15.60;52.40;;;;;;5154979;27;45249;-51
2024/01/28 03:14:45;;;;;;;6.00;2.15;;;15.60;52.20;;;;;;5150689;27;46144;-51
2024/01/28 03:17:12;;;;;;;4.68;1.85;;;15.60;51.90;;;;;;5151435;27;45251;-51
2024/01/28 03:19:39;;;;;;;7.60;2.25;;;15.60;51.80;;;;;;5149778;27;45254;-51
2024/01/28 03:22:05;;;;;;;4.30;1.90;;;15.50;50.80;;;;;;5151743;27;45189;-51
2024/01/28 03:24:32;;;;;;;7.82;2.22;;;15.50;51.00;;;;;;5151740;27;46204;-51
2024/01/28 03:26:59;;;;;;;6.00;1.92;;;15.50;50.90;;;;;;5154310;27;45291;-51
2024/01/28 03:29:26;;;;;;;5.10;1.75;;;15.60;49.90;;;;;;5154856;27;45332;-51
2024/01/28 03:31:54;;;;;;;6.43;2.20;;;15.50;49.80;;;;;;5150054;27;45177;-51
2024/01/28 03:34:20;;;;;;;7.13;1.95;;;15.60;49.90;;;;;;5154594;27;47944;-51
2024/01/28 03:36:47;;;;;;;6.60;1.70;;;15.60;49.90;;;;;;5152322;27;45261;-51
2024/01/28 03:39:15;;;;;;;3.80;1.80;;;15.60;49.90;;;;;;5152650;27;45160;-51
2024/01/28 03:41:41;;;;;;;4.00;1.73;;;15.70;50.00;;;;;;5151800;27;44856;-51
2024/01/28 03:44:08;;;;;;;3.72;1.70;;;15.70;49.90;;;;;;5157748;27;45292;-51
2024/01/28 03:46:37;;;;;;;4.95;1.70;;;15.60;49.90;;;;;;5146605;27;45287;-51
2024/01/28 03:49:06;;;;;;;4.90;1.83;;;15.70;49.20;;;;;;5150547;27;45248;-51
2024/01/28 03:51:32;;;;;;;3.58;1.73;;;15.70;49.10;;;;;;5153666;27;45561;-51
2024/01/28 03:53:59;;;;;;;5.22;2.05;;;15.70;49.00;;;;;;5154938;27;46165;-51
2024/01/28 03:56:26;;;;;;;6.80;2.22;;;15.70;49.10;;;;;;5153214;27;45356;-51
2024/01/28 03:58:52;;;;;;;6.93;1.60;;;15.70;48.50;;;;;;5155207;27;45204;-51
2024/01/28 04:01:29;;;;;;;4.75;1.85;;;15.60;48.40;;;;;;5156145;27;45230;-51
2024/01/28 04:03:57;;;;;;;7.38;1.98;;;15.60;48.80;;;;;;5150675;27;46031;-51
2024/01/28 04:06:26;;;;;;;5.97;1.60;;;15.60;49.30;;;;;;5150248;27;44816;-51
2024/01/28 04:08:55;;;;;;;4.72;1.85;;;15.50;48.80;;;;;;5155409;27;45147;-51
2024/01/28 04:11:24;;;;;;;4.30;1.52;;;15.50;49.30;;;;;;5153818;27;45169;-50
2024/01/28 04:13:51;;;;;;;5.00;1.70;;;15.50;49.20;;;;;;5149508;27;45275;-51
2024/01/28 04:16:17;;;;;;;5.50;2.13;;;15.50;49.20;;;;;;5151279;27;45227;-51
2024/01/28 04:18:44;;;;;;;4.07;1.42;;;15.50;49.30;;;;;;5154432;27;45211;-50
2024/01/28 04:21:11;;;;;;;6.00;1.73;;;15.50;49.30;;;;;;5151657;27;45164;-51
2024/01/28 04:23:40;;;;;;;3.13;1.45;;;15.50;49.00;;;;;;5150780;27;46889;-51
2024/01/28 04:26:06;;;;;;;5.25;2.05;;;15.50;49.20;;;;;;5154502;27;45406;-51
2024/01/28 04:28:33;;;;;;;3.53;1.42;;;15.50;48.60;;;;;;5151320;27;45040;-51
2024/01/28 04:31:00;;;;;;;4.35;1.50;;;15.50;48.70;;;;;;5148692;27;45306;-51
2024/01/28 04:33:27;;;;;;;5.38;2.03;;;15.40;48.80;;;;;;5151206;27;45101;-50
2024/01/28 04:35:53;;;;;;;4.07;1.58;;;15.50;48.70;;;;;;5156941;27;45294;-51
2024/01/28 04:38:20;;;;;;;3.72;1.45;;;15.50;47.90;;;;;;5151398;27;45183;-51
2024/01/28 04:40:48;;;;;;;4.65;1.75;;;15.50;49.00;;;;;;5148748;27;44709;-51
2024/01/28 04:43:15;;;;;;;6.18;1.60;;;15.60;47.80;;;;;;5150993;27;45280;-51
2024/01/28 04:45:43;;;;;;;4.22;1.48;;;15.60;47.40;;;;;;5149255;27;44727;-51
2024/01/28 04:48:09;;;;;;;6.78;1.60;;;15.60;47.50;;;;;;5150638;27;45197;-51
2024/01/28 04:50:36;;;;;;;6.05;1.73;;;15.60;46.90;;;;;;5150122;27;45181;-51
2024/01/28 04:53:03;;;;;;;7.05;1.70;;;15.60;46.90;;;;;;5151053;27;47359;-50
2024/01/28 04:55:30;;;;;;;3.53;1.40;;;15.60;46.60;;;;;;5151353;27;45334;-51
2024/01/28 04:57:58;;;;;;;3.40;1.58;;;15.60;47.00;;;;;;5153853;27;45082;-51
2024/01/28 05:00:25;;;;;;;2.67;1.25;;;15.60;46.40;;;;;;5150644;27;45344;-51
2024/01/28 05:02:55;;;;;;;5.50;1.85;;;15.60;46.70;;;;;;5148685;27;45232;-51
2024/01/28 05:05:22;;;;;;;4.07;1.40;;;15.60;46.40;;;;;;5152187;27;45212;-51
2024/01/28 05:07:49;;;;;;;4.15;1.50;;;15.60;47.10;;;;;;5150010;27;45285;-51
2024/01/28 05:10:16;;;;;;;3.83;1.45;;;15.50;47.20;;;;;;5151676;27;45351;-51
2024/01/28 05:12:45;;;;;;;4.28;1.70;;;15.50;49.30;;;;;;5148534;27;45232;-51
2024/01/28 05:15:16;;;;;;;4.85;1.80;;;15.50;51.20;;;;;;5150501;27;45212;-51
2024/01/28 05:17:42;;;;;;;4.50;1.60;;;15.50;49.80;;;;;;5149450;27;45808;-51
2024/01/28 05:20:11;;;;;;;4.95;1.63;;;15.50;49.70;;;;;;5151774;27;45578;-51
2024/01/28 05:22:38;;;;;;;4.15;1.55;;;15.50;49.20;;;;;;5149951;27;45385;-51
2024/01/28 05:25:05;;;;;;;3.42;1.77;;;15.40;48.50;;;;;;5153257;27;45325;-51
2024/01/28 05:27:33;;;;;;;3.67;1.65;;;15.50;48.70;;;;;;5149868;27;44780;-51
2024/01/28 05:29:59;;;;;;;6.38;1.60;;;15.40;48.20;;;;;;5156302;27;45193;-51
2024/01/28 05:32:28;;;;;;;1.92;1.27;;;15.40;48.10;;;;;;5151133;27;46327;-51
2024/01/28 05:34:56;;;;;;;4.13;1.50;;;15.40;47.90;;;;;;5148127;27;45194;-51
2024/01/28 05:37:23;;;;;;;4.28;1.55;;;15.40;47.80;;;;;;5149535;27;45164;-51
2024/01/28 05:39:49;;;;;;;5.38;1.95;;;15.40;47.70;;;;;;5148168;27;44715;-51
2024/01/28 05:42:16;;;;;;;4.05;1.63;;;15.40;47.60;;;;;;5148786;27;45441;-51
2024/01/28 05:44:43;;;;;;;3.53;1.58;;;15.50;47.20;;;;;;5150601;27;45185;-51
2024/01/28 05:47:10;;;;;;;5.13;1.20;;;15.50;46.70;;;;;;5150849;27;45341;-51
2024/01/28 05:49:38;;;;;;;3.28;1.58;;;15.50;46.50;;;;;;5151567;27;45160;-51
2024/01/28 05:52:05;;;;;;;4.10;1.60;;;15.50;46.00;;;;;;5151790;27;46643;-51
2024/01/28 05:54:33;;;;;;;3.45;1.50;;;15.50;46.00;;;;;;5149530;27;45204;-51
2024/01/28 05:57:00;;;;;;;4.05;1.67;;;15.60;46.00;;;;;;5149005;27;45351;-51
2024/01/28 05:59:26;;;;;;;2.97;1.50;;;15.60;45.90;;;;;;5150406;27;45231;-51
2024/01/28 06:01:54;;;;;;;4.50;1.45;;;15.60;45.90;;;;;;5151019;27;46338;-51
2024/01/28 06:04:21;;;;;;;5.70;1.88;;;15.60;45.80;;;;;;5146178;27;45137;-51
2024/01/28 06:06:49;;;;;;;2.97;1.40;;;15.60;45.80;;;;;;5148927;27;45192;-51
2024/01/28 06:09:16;;;;;;;4.50;1.52;;;15.60;45.40;;;;;;5154782;27;45611;-51
2024/01/28 06:11:43;;;;;;;6.28;1.95;;;15.50;45.30;;;;;;5154024;27;48045;-51
2024/01/28 06:14:10;;;;;;;5.30;1.80;;;15.50;46.10;;;;;;5154540;27;45294;-51
2024/01/28 06:16:37;;;;;;;6.28;1.60;;;15.40;46.10;;;;;;5152806;27;45185;-51
2024/01/28 06:19:04;;;;;;;3.85;1.63;;;15.40;45.90;;;;;;5150859;27;45183;-51
2024/01/28 06:21:31;;;;;;;4.40;1.52;;;15.40;46.00;;;;;;5153266;27;46506;-51
2024/01/28 06:23:59;;;;;;;3.42;1.40;;;15.40;46.00;;;;;;5157152;27;45196;-51
2024/01/28 06:26:26;;;;;;;3.50;1.50;;;15.40;45.70;;;;;;5151735;27;45181;-51
2024/01/28 06:28:52;;;;;;;3.60;1.50;;;15.40;45.90;;;;;;5151958;27;45196;-51
2024/01/28 06:31:20;;;;;;;6.30;1.73;;;15.40;46.00;;;;;;5153505;27;47469;-51
2024/01/28 06:33:47;;;;;;;4.82;1.70;;;15.40;45.70;;;;;;5154115;27;46090;-51
2024/01/28 06:36:20;;;;;;;3.58;1.52;;;15.40;45.90;;;;;;5150965;27;45351;-51
2024/01/28 06:38:47;;;;;;;4.88;1.48;;;15.40;45.70;;;;;;5156530;27;44693;-51
2024/01/28 06:41:16;;;;;;;4.65;2.05;;;15.40;45.60;;;;;;5155300;27;47360;-51
2024/01/28 06:43:43;;;;;;;6.47;1.85;;;15.40;45.60;;;;;;5153535;27;45334;-50
2024/01/28 06:46:11;;;;;;;3.75;1.60;;;15.40;45.60;;;;;;5150968;27;45293;-51
2024/01/28 06:48:38;;;;;;;3.72;1.65;;;15.40;45.60;;;;;;5151688;27;45540;-50
2024/01/28 06:51:05;;;;;;;3.72;1.33;;;15.40;45.10;;;;;;5155221;27;45198;-51
2024/01/28 06:53:32;;;;;;;4.75;1.45;;;15.40;44.70;;;;;;5151394;27;45211;-51
2024/01/28 06:55:59;;;;;;;2.13;1.17;;;15.40;44.90;;;;;;5152637;27;45187;-51
2024/01/28 06:58:27;;;;;;;2.65;1.45;;;15.40;44.60;;;;;;5153182;27;45124;-51
2024/01/28 07:00:54;;;;;;;2.72;1.25;;;15.40;44.10;;;;;;5152317;27;46230;-51
2024/01/28 07:03:21;;;;;;;5.00;1.60;;;15.40;44.10;;;;;;5148415;27;45229;-51
2024/01/28 07:05:47;;;;;;;2.83;1.30;;;15.40;44.20;;;;;;5154953;27;45192;-51
2024/01/28 07:08:14;;;;;;;3.35;1.38;;;15.40;44.30;;;;;;5157850;27;45142;-51
2024/01/28 07:10:41;;;;;;;2.83;1.33;;;15.40;44.00;;;;;;5149586;27;46486;-51
2024/01/28 07:13:08;;;;;;;4.50;1.42;;;15.40;44.40;;;;;;5155328;27;45058;-51
2024/01/28 07:15:36;;;;;;;4.35;1.67;;;15.40;44.20;;;;;;5153287;27;45695;-51
2024/01/28 07:18:03;;;;;;;2.42;1.27;;;15.40;44.70;;;;;;5150610;27;45435;-51
2024/01/28 07:20:31;;;;;;;3.10;1.27;;;15.40;52.20;;;;;;5150572;27;45117;-51
2024/01/28 07:22:58;;;;;;;3.17;1.35;;;15.40;49.70;;;;;;5151667;27;45174;-51
2024/01/28 07:25:25;;;;;;;4.28;1.23;;;15.40;48.10;;;;;;5152645;27;45220;-51
2024/01/28 07:27:52;;;;;;;4.60;1.58;;;15.30;47.10;;;;;;5151823;27;45253;-51
2024/01/28 07:30:19;;;;;;;3.42;1.40;;;15.40;46.90;;;;;;5152893;27;45437;-51
2024/01/28 07:32:47;;;;;;;4.07;1.48;;;15.40;46.60;;;;;;5151797;27;45295;-51
2024/01/28 07:35:15;;;;;;;3.67;1.58;;;15.40;46.50;;;;;;5153939;27;45129;-51
2024/01/28 07:37:42;;;;;;;4.22;1.38;;;15.40;46.20;;;;;;5151048;27;45453;-51
2024/01/28 07:40:10;;;;;;;6.63;1.42;;;15.30;45.90;;;;;;5153040;27;45431;-51
2024/01/28 07:42:37;;;;;;;5.03;1.40;;;15.30;45.70;;;;;;5151139;27;45338;-51
2024/01/28 07:45:04;;;;;;;2.45;1.15;;;15.40;45.80;;;;;;5157385;27;45414;-51
2024/01/28 07:47:31;;;;;;;5.40;1.70;;;15.40;45.60;;;;;;5149656;27;45282;-51
2024/01/28 07:50:00;;;;;;;3.17;1.15;;;15.30;45.20;;;;;;5151811;27;45174;-51
2024/01/28 07:52:26;;;;;;;3.08;1.55;;;15.40;45.10;;;;;;5154500;27;45519;-51
2024/01/28 07:54:53;;;;;;;3.65;1.40;;;15.40;44.80;;;;;;5151020;27;45165;-51
2024/01/28 07:57:20;;;;;;;8.52;1.70;;;15.40;44.40;;;;;;5151735;27;45360;-51
2024/01/28 07:59:47;;;;;;;3.35;1.48;;;15.40;44.20;;;;;;5149470;27;47441;-51
2024/01/28 08:02:13;;;;;;;4.32;1.48;;;15.40;44.10;;;;;;5147665;27;45203;-51
2024/01/28 08:04:40;;;;;;;5.53;1.50;;;15.50;44.10;;;;;;5148148;27;45237;-51
2024/01/28 08:07:09;;;;;;;3.92;1.42;;;15.50;44.10;;;;;;5152076;27;45199;-51
2024/01/28 08:09:36;;;;;;;2.22;1.02;;;15.50;44.80;;;;;;5148127;27;46388;-51
2024/01/28 08:12:04;;;;;;;2.20;1.15;;;15.60;44.80;;;;;;5148737;27;45306;-51
2024/01/28 08:14:31;;;;;;;4.25;1.55;;;15.60;44.70;;;;;;5149721;27;45235;-51
2024/01/28 08:16:57;;;;;;;4.20;1.50;;;15.60;44.50;;;;;;5148884;27;45413;-51
2024/01/28 08:19:24;;;;;;;4.90;1.52;;;15.60;44.70;;;;;;5146977;27;46510;-51
2024/01/28 08:21:51;;;;;;;5.85;1.30;;;15.60;45.00;;;;;;5147477;27;45342;-51
2024/01/28 08:24:19;;;;;;;2.83;1.30;;;15.60;45.40;;;;;;5146370;27;45421;-51
2024/01/28 08:26:46;;;;;;;3.60;1.42;;;15.60;45.40;;;;;;5150878;27;45307;-51
2024/01/28 08:29:12;;;;;;;3.25;1.25;;;15.60;45.50;;;;;;5150359;27;45210;-51
2024/01/28 08:31:39;;;;;;;1.73;1.13;;;15.60;45.20;;;;;;5148846;27;45698;-51
2024/01/28 08:34:06;;;;;;;5.57;1.33;;;15.60;45.00;;;;;;5149522;27;45224;-51
2024/01/28 08:36:33;;;;;;;4.70;2.00;;;15.60;45.00;;;;;;5153669;27;45437;-51
2024/01/28 08:39:00;;;;;;;3.90;1.15;;;15.60;46.10;;;;;;5147739;27;46342;-51
2024/01/28 08:41:28;;;;;;;3.97;1.23;;;15.60;44.80;;;;;;5154923;27;45466;-51
2024/01/28 08:43:55;;;;;;;3.60;1.25;;;15.60;44.60;;;;;;5150751;27;45263;-51
2024/01/28 08:46:21;;;;;;;5.70;1.88;;;15.50;44.80;;;;;;5149377;27;45608;-51
2024/01/28 08:48:48;;;;;;;6.38;1.92;;;15.50;44.70;;;;;;5148999;27;46570;-51
2024/01/28 08:51:15;;;;;;;2.83;1.38;;;15.50;44.50;;;;;;5147738;27;45215;-51
2024/01/28 08:53:43;;;;;;;3.88;1.70;;;15.50;44.50;;;;;;5151853;27;45136;-50
2024/01/28 08:56:10;;;;;;;3.72;1.30;;;15.40;44.10;;;;;;5153136;27;45349;-50
2024/01/28 08:58:38;;;;;;;6.05;1.83;;;15.40;44.30;;;;;;5146950;27;46327;-50
2024/01/28 09:01:05;;;;;;;3.10;1.33;;;15.40;44.30;;;;;;5150190;27;46472;-51
2024/01/28 09:03:32;;;;;;;2.65;1.20;;;15.40;44.00;;;;;;5150963;27;45294;-51
2024/01/28 09:06:00;;;;;;;6.13;1.63;;;15.40;43.80;;;;;;5148722;27;45219;-51
2024/01/28 09:08:30;;;;;;;2.85;1.30;;;15.40;43.60;;;;;;5147992;27;47957;-51
2024/01/28 09:10:56;;;;;;;2.42;1.30;;;15.40;43.60;;;;;;5149056;27;45292;-51
2024/01/28 09:13:24;;;;;;;1.50;1.20;;;15.40;43.60;;;;;;5148279;27;45289;-51
2024/01/28 09:15:53;;;;;;;2.55;1.20;;;15.40;43.50;;;;;;5147458;27;45163;-51
2024/01/28 09:18:20;;;;;;;4.63;1.60;;;15.40;43.90;;;;;;5157092;27;46543;-51
2024/01/28 09:20:46;;;;;;;2.60;1.30;;;15.50;44.00;;;;;;5152312;27;45151;-51
2024/01/28 09:23:13;;;;;;;4.90;1.33;;;15.50;48.00;;;;;;5149920;27;45138;-51
2024/01/28 09:25:40;;;;;;;3.38;1.33;;;15.50;47.60;;;;;;5149902;27;45177;-51
2024/01/28 09:28:08;;;;;;;3.08;1.35;;;15.50;46.40;;;;;;5149213;27;45273;-51
2024/01/28 09:30:35;;;;;;;4.53;1.27;;;15.50;46.00;;;;;;5152078;27;45208;-50
2024/01/28 09:33:03;;;;;;;2.67;1.20;;;15.50;45.90;;;;;;5149555;27;45191;-51
2024/01/28 09:35:31;;;;;;;4.32;1.50;;;15.50;45.70;;;;;;5152343;27;45145;-51
2024/01/28 09:37:58;;;;;;;4.00;1.58;;;15.50;45.40;;;;;;5148276;27;47204;-51
2024/01/28 09:40:25;;;;;;;3.00;1.30;;;15.40;45.10;;;;;;5151993;27;45308;-51
2024/01/28 09:42:59;;;;;;;3.92;1.42;;;15.40;45.10;;;;;;5151536;27;45161;-51
2024/01/28 09:45:27;;;;;;;3.63;1.30;;;15.40;44.60;;;;;;5155347;27;45177;-51
2024/01/28 09:47:54;;;;;;;2.97;1.40;;;15.40;44.80;;;;;;5149973;27;45388;-51
2024/01/28 09:50:23;;;;;;;2.78;1.33;;;15.50;44.90;;;;;;5154376;27;45197;-51
2024/01/28 09:52:50;;;;;;;4.55;1.55;;;15.50;44.70;;;;;;5153424;27;45317;-51
2024/01/28 09:55:17;;;;;;;3.97;1.35;;;15.40;44.70;;;;;;5157015;27;45136;-51
2024/01/28 09:57:44;;;;;;;5.35;1.33;;;15.40;44.60;;;;;;5152970;27;47967;-51
2024/01/28 10:00:13;;;;;;;3.15;1.30;;;15.50;44.20;;;;;;5153178;27;45208;-51
2024/01/28 10:02:40;;;;;;;3.40;1.30;;;15.50;44.00;;;;;;5152272;27;45246;-51
2024/01/28 10:05:10;;;;;;;6.05;1.52;;;15.50;45.20;;;;;;5153455;27;45670;-51
2024/01/28 10:07:43;;;;;;;2.80;1.30;;;15.50;43.80;;;;;;5155946;27;45294;-51
2024/01/28 10:10:12;;;;;;;2.45;1.20;;;15.50;43.80;;;;;;5152654;27;45234;-51
2024/01/28 10:12:39;;;;;;;3.70;1.58;;;15.50;43.70;;;;;;5151311;27;45516;-51
2024/01/28 10:15:14;;;;;;;3.17;1.48;;;15.60;43.80;;;;;;5157842;27;45379;-51
2024/01/28 10:17:46;;;;;;;3.13;1.10;;;15.60;43.70;;;;;;5154123;27;46951;-51
2024/01/28 10:20:13;;;;;;;4.07;1.33;;;15.60;43.60;;;;;;5153621;27;46461;-51
2024/01/28 10:22:42;;;;;;;5.95;1.70;;;15.60;43.60;;;;;;5154769;27;45222;-50
2024/01/28 10:25:12;;;;;;;5.93;1.58;;;15.50;44.10;;;;;;5152799;27;45511;-51
2024/01/28 10:27:40;;;;;;;3.58;1.25;;;15.50;44.20;;;;;;5155443;27;45334;-51
2024/01/28 10:30:07;;;;;;;3.97;1.90;;;15.50;44.40;;;;;;5152941;27;45218;-51
2024/01/28 10:32:34;;;;;;;2.42;1.40;;;15.40;44.40;;;;;;5152164;27;45175;-51
2024/01/28 10:35:01;;;;;;;3.17;1.42;;;15.40;44.30;;;;;;5152571;27;45349;-51
2024/01/28 10:37:29;;;;;;;4.38;1.30;;;15.50;44.30;;;;;;5151993;27;45444;-51
2024/01/28 10:39:59;;;;;;;4.00;1.60;;;15.50;44.30;;;;;;5151644;27;45240;-51
2024/01/28 10:42:28;;;;;;;4.20;1.80;;;15.50;45.50;;;;;;5155048;27;45279;-51
2024/01/28 10:44:57;;;;;;;2.85;1.50;;;15.50;44.40;;;;;;5153280;27;44842;-51
2024/01/28 10:47:26;;;;;;;4.32;1.40;;;15.50;44.10;;;;;;5153052;27;47434;-51
2024/01/28 10:49:58;;;;;;;3.58;1.70;;;15.50;44.10;;;;;;5155223;27;45145;-51
2024/01/28 10:52:27;;;;;;;4.80;1.70;;;15.50;44.10;;;;;;5153924;27;45275;-51
2024/01/28 10:54:54;;;;;;;3.38;1.60;;;15.50;44.10;;;;;;5151222;27;44715;-51
2024/01/28 10:57:25;;;;;;;2.63;1.58;;;15.50;44.10;;;;;;5154670;27;46980;-51
2024/01/28 10:59:54;;;;;;;3.67;1.38;;;15.60;44.00;;;;;;5153204;27;45341;-51
2024/01/28 11:02:21;;;;;;;3.28;1.10;;;15.60;43.80;;;;;;5155691;27;45284;-51
2024/01/28 11:04:48;;;;;;;2.45;1.10;;;15.60;43.70;;;;;;5152562;27;45473;-51
2024/01/28 11:07:19;;;;;;;2.70;1.17;;;15.60;43.80;;;;;;5151362;27;46184;-51
2024/01/28 11:09:46;;;;;;;2.13;1.25;;;15.60;43.80;;;;;;5151197;27;45251;-51
2024/01/28 11:12:13;;;;;;;2.03;1.27;;;15.70;44.80;;;;;;5156132;27;45106;-51
2024/01/28 11:14:41;;;;;;;5.15;1.52;;;15.70;44.90;;;;;;5155870;27;45169;-51
2024/01/28 11:17:11;;;;;;;3.97;1.45;;;15.70;45.60;;;;;;5155063;27;48003;-51
2024/01/28 11:19:38;;;;;;;3.35;1.20;;;15.70;45.50;;;;;;5152188;27;45275;-51
2024/01/28 11:22:05;;;;;;;3.53;1.30;;;15.70;45.80;;;;;;5153478;27;45228;-51
2024/01/28 11:24:48;;;;;;;2.47;1.00;;;15.80;45.90;;;;;;5153837;27;45358;-51
2024/01/28 11:27:15;;;;;;;4.53;1.13;;;15.70;46.20;;;;;;5152559;27;47675;-51
2024/01/28 11:29:44;;;;;;;3.35;1.27;;;15.70;46.40;;;;;;5152397;27;45180;-51
2024/01/28 11:32:11;;;;;;;3.50;1.20;;;15.70;46.60;;;;;;5151806;27;45247;-51
2024/01/28 11:34:37;;;;;;;5.47;1.33;;;15.80;46.90;;;;;;5154399;27;45315;-51
2024/01/28 11:37:05;;;;;;;3.00;1.30;;;15.80;47.00;;;;;;5149877;27;46487;-51
2024/01/28 11:39:39;;;;;;;2.55;1.23;;;15.80;47.20;;;;;;5153859;27;45307;-52
2024/01/28 11:42:06;;;;;;;2.30;1.20;;;15.70;47.30;;;;;;5154585;27;45155;-51
2024/01/28 11:44:34;;;;;;;1.95;1.00;;;15.70;47.50;;;;;;5154262;27;45263;-51
2024/01/28 11:47:03;;;;;;;1.95;1.20;;;15.70;47.70;;;;;;5149774;27;46216;-51
2024/01/28 11:49:30;;;;;;;2.70;1.40;;;15.80;47.90;;;;;;5150726;27;45179;-51
2024/01/28 11:51:57;;;;;;;3.85;1.40;;;15.80;47.80;;;;;;5152877;27;45213;-51
2024/01/28 11:54:24;;;;;;;2.15;1.10;;;15.80;49.20;;;;;;5154944;27;45504;-51
2024/01/28 11:56:51;;;;;;;2.92;1.27;;;15.80;48.30;;;;;;5149790;27;46991;-51
2024/01/28 11:59:18;;;;;;;3.78;1.20;;;15.80;48.40;;;;;;5155294;27;45396;-51
2024/01/28 12:01:45;;;;;;;2.25;1.00;;;15.80;48.50;;;;;;5153294;27;45110;-51
2024/01/28 12:04:14;;;;;;;2.67;1.05;;;15.90;48.70;;;;;;5151147;27;45188;-51
2024/01/28 12:06:41;;;;;;;3.60;1.30;;;15.90;48.60;;;;;;5151500;27;47415;-50
2024/01/28 12:09:08;;;;;;;2.67;1.00;;;15.80;48.50;;;;;;5155580;27;45355;-51
2024/01/28 12:11:36;;;;;;;3.15;1.10;;;15.90;48.60;;;;;;5150638;27;45198;-51
2024/01/28 12:14:02;;;;;;;3.30;1.20;;;15.90;50.00;;;;;;5151851;27;45487;-51
2024/01/28 12:16:29;;;;;;;2.05;1.27;;;15.90;48.70;;;;;;5152445;27;46539;-51
2024/01/28 12:18:57;;;;;;;2.28;1.17;;;15.90;48.80;;;;;;5154040;27;45393;-51
2024/01/28 12:21:27;;;;;;;2.80;1.20;;;15.90;48.80;;;;;;5152398;27;45393;-51
2024/01/28 12:23:56;;;;;;;2.70;1.20;;;15.90;49.10;;;;;;5151648;27;45193;-51
2024/01/28 12:26:24;;;;;;;2.30;1.00;;;15.90;49.20;;;;;;5150014;27;47870;-51
2024/01/28 12:28:52;;;;;;;2.78;1.40;;;15.90;49.50;;;;;;5152259;27;44646;-51
2024/01/28 12:31:19;;;;;;;3.80;1.10;;;15.90;49.70;;;;;;5153202;27;45423;-51
2024/01/28 12:33:47;;;;;;;1.90;1.10;;;15.80;50.10;;;;;;5153006;27;45342;-51
2024/01/28 12:36:13;;;;;;;2.03;1.10;;;15.80;50.10;;;;;;5149816;27;45312;-51
2024/01/28 12:38:42;;;;;;;2.20;1.10;;;15.80;50.10;;;;;;5152390;27;45081;-51
2024/01/28 12:41:10;;;;;;;3.00;1.13;;;15.90;50.20;;;;;;5150545;27;45295;-51
2024/01/28 12:43:37;;;;;;;2.13;1.15;;;15.90;50.20;;;;;;5152670;27;45323;-51
2024/01/28 12:46:05;;;;;;;3.08;1.00;;;15.90;50.20;;;;;;5149033;27;48769;-51
2024/01/28 12:48:31;;;;;;;2.85;1.20;;;15.90;50.20;;;;;;5148695;27;45135;-51